createdAt,value
2019-05-21T00:01:29.782Z,13.65
2019-05-21T00:06:36.004Z,13.63
2019-05-21T00:11:41.243Z,13.60
2019-05-21T00:16:46.422Z,13.54
2019-05-21T00:21:51.669Z,13.50
2019-05-21T00:26:56.954Z,13.50
2019-05-21T00:32:38.004Z,13.46
2019-05-21T00:38:18.954Z,13.45
2019-05-21T00:43:46.422Z,13.41
2019-05-21T00:48:51.663Z,13.33
2019-05-21T00:53:57.196Z,13.26
2019-05-21T00:59:02.432Z,13.24
2019-05-21T01:04:07.694Z,13.17
2019-05-21T01:09:12.939Z,13.16
2019-05-21T01:14:18.183Z,13.12
2019-05-21T01:19:23.419Z,13.13
2019-05-21T01:24:28.681Z,13.14
2019-05-21T01:29:33.902Z,13.13
2019-05-21T01:34:39.154Z,13.11
2019-05-21T01:39:44.401Z,13.10
2019-05-21T01:44:49.632Z,13.09
2019-05-21T01:49:55.146Z,13.07
2019-05-21T01:55:00.744Z,13.05
2019-05-21T02:00:07.247Z,13.04
2019-05-21T02:05:12.672Z,13.03
2019-05-21T02:10:18.397Z,13.02
2019-05-21T02:15:23.639Z,13.01
2019-05-21T02:20:28.896Z,13.01
2019-05-21T02:25:34.177Z,13.02
2019-05-21T02:30:39.430Z,13.01
2019-05-21T02:35:54.157Z,13.02
2019-05-21T02:40:51.657Z,13.04
2019-05-21T02:45:56.901Z,13.05
2019-05-21T02:51:02.184Z,13.06
2019-05-21T02:56:07.431Z,13.09
2019-05-21T03:01:31.546Z,13.09
2019-05-21T03:06:37.350Z,13.10
2019-05-21T03:11:42.737Z,13.11
2019-05-21T03:16:48.485Z,13.14
2019-05-21T03:21:53.826Z,13.17
2019-05-21T03:26:59.171Z,13.21
2019-05-21T03:32:05.005Z,13.23
2019-05-21T03:37:11.197Z,13.26
2019-05-21T03:42:16.419Z,13.29
2019-05-21T03:47:21.894Z,13.32
2019-05-21T03:52:27.017Z,13.35
2019-05-21T03:57:32.246Z,13.37
2019-05-21T04:02:37.326Z,13.40
2019-05-21T04:07:42.671Z,13.43
2019-05-21T04:13:06.472Z,13.48
2019-05-21T04:18:16.805Z,13.50
2019-05-21T04:23:21.943Z,13.53
2019-05-21T04:28:27.113Z,13.54
2019-05-21T04:33:32.338Z,13.61
2019-05-21T04:38:37.552Z,13.63
2019-05-21T04:43:42.787Z,13.69
2019-05-21T04:48:48.105Z,13.73
2019-05-21T04:53:53.393Z,13.84
2019-05-21T04:58:58.486Z,13.95
2019-05-21T05:04:03.676Z,13.98
2019-05-21T05:09:08.894Z,14.03
2019-05-21T05:14:14.306Z,13.99
2019-05-21T05:19:20.568Z,13.97
2019-05-21T05:24:25.700Z,13.91
2019-05-21T05:29:31.156Z,13.90
2019-05-21T05:34:36.621Z,13.95
2019-05-21T05:39:42.070Z,14.06
2019-05-21T05:44:47.223Z,14.15
2019-05-21T05:49:54.120Z,14.06
2019-05-21T05:54:59.274Z,13.93
2019-05-21T06:00:05.311Z,13.89
2019-05-21T06:05:11.536Z,13.96
2019-05-21T06:10:16.818Z,14.08
2019-05-21T06:15:22.136Z,14.27
2019-05-21T06:20:27.459Z,14.33
2019-05-21T06:25:32.735Z,14.41
2019-05-21T06:30:38.258Z,14.23
2019-05-21T06:35:43.404Z,14.39
2019-05-21T06:40:48.674Z,14.49
2019-05-21T06:45:54.453Z,14.55
2019-05-21T06:51:01.415Z,14.51
2019-05-21T06:56:07.793Z,14.56
2019-05-21T07:01:13.144Z,14.23
2019-05-21T07:06:18.373Z,14.02
2019-05-21T07:11:23.592Z,14.05
2019-05-21T07:16:29.776Z,14.03
2019-05-21T07:21:35.968Z,14.17
2019-05-21T07:26:42.311Z,14.02
2019-05-21T07:31:47.503Z,13.95
2019-05-21T07:36:52.728Z,13.90
2019-05-21T07:41:59.059Z,14.04
2019-05-21T07:47:04.397Z,14.08
2019-05-21T07:52:09.633Z,14.35
2019-05-21T07:57:15.603Z,14.29
2019-05-21T08:02:20.826Z,14.26
2019-05-21T08:07:26.280Z,13.99
2019-05-21T08:12:39.089Z,14.00
2019-05-21T08:17:38.348Z,13.92
2019-05-21T08:22:43.924Z,13.93
2019-05-21T08:27:49.075Z,13.82
2019-05-21T08:32:54.360Z,13.91
2019-05-21T08:38:00.230Z,14.01
2019-05-21T08:43:05.893Z,13.96
2019-05-21T08:48:11.175Z,14.06
2019-05-21T08:53:16.380Z,14.15
2019-05-21T08:58:21.602Z,14.27
2019-05-21T09:03:27.481Z,14.47
2019-05-21T09:08:32.699Z,14.87
2019-05-21T09:13:37.851Z,14.93
2019-05-21T09:18:43.026Z,14.99
2019-05-21T09:23:48.281Z,15.04
2019-05-21T09:28:53.815Z,14.91
2019-05-21T09:33:58.872Z,15.36
2019-05-21T09:39:05.268Z,16.12
2019-05-21T09:44:12.264Z,16.27
2019-05-21T09:49:17.499Z,15.95
2019-05-21T09:54:22.722Z,15.63
2019-05-21T10:00:02.943Z,15.84
2019-05-21T10:05:09.225Z,16.33
2019-05-21T10:10:14.881Z,16.84
2019-05-21T10:15:20.486Z,16.98
2019-05-21T10:20:25.716Z,16.80
2019-05-21T10:25:30.970Z,17.13
2019-05-21T10:30:36.203Z,17.27
2019-05-21T10:35:42.440Z,17.56
2019-05-21T10:40:47.777Z,17.71
2019-05-21T10:45:53.336Z,17.74
2019-05-21T10:50:58.552Z,17.82
2019-05-21T10:56:03.823Z,18.17
2019-05-21T11:01:16.973Z,18.34
2019-05-21T11:06:22.226Z,18.52
2019-05-21T11:11:28.825Z,18.50
2019-05-21T11:16:34.064Z,18.93
2019-05-21T11:21:39.305Z,18.72
2019-05-21T11:26:44.560Z,18.41
2019-05-21T11:31:57.177Z,18.26
2019-05-21T11:36:57.061Z,18.27
2019-05-21T11:42:02.681Z,18.52
2019-05-21T11:47:07.937Z,18.72
2019-05-21T11:52:13.548Z,18.39
2019-05-21T11:57:18.777Z,18.39
2019-05-21T12:02:24.268Z,17.98
2019-05-21T12:07:29.421Z,18.10
2019-05-21T12:12:34.984Z,18.51
2019-05-21T12:22:53.098Z,18.45
2019-05-21T12:27:58.647Z,18.56
2019-05-21T12:33:03.872Z,18.54
2019-05-21T12:38:09.085Z,18.96
2019-05-21T12:43:14.628Z,19.04
2019-05-21T12:48:19.779Z,19.07
2019-05-21T12:53:24.934Z,18.87
2019-05-21T12:58:30.084Z,18.84
2019-05-21T13:03:35.225Z,19.01
2019-05-21T13:08:40.789Z,18.89
2019-05-21T13:13:46.014Z,18.79
2019-05-21T13:18:51.460Z,18.80
2019-05-21T13:23:56.744Z,19.02
2019-05-21T13:29:02.002Z,19.46
2019-05-21T13:34:07.425Z,19.49
2019-05-21T13:39:13.031Z,19.70
2019-05-21T13:44:18.254Z,19.87
2019-05-21T13:49:23.490Z,20.23
2019-05-21T13:54:28.715Z,20.20
2019-05-21T13:59:34.770Z,20.03
2019-05-21T14:04:39.989Z,19.73
2019-05-21T14:09:45.799Z,19.51
2019-05-21T14:14:51.231Z,19.58
2019-05-21T14:19:56.488Z,19.33
2019-05-21T14:25:02.133Z,19.33
2019-05-21T14:30:09.950Z,19.37
2019-05-21T14:35:15.282Z,19.28
2019-05-21T14:40:31.552Z,19.31
2019-05-21T14:45:33.461Z,19.22
2019-05-21T14:50:35.781Z,19.23
2019-05-21T14:55:41.003Z,19.50
2019-05-21T15:00:46.582Z,19.42
2019-05-21T15:05:51.833Z,19.26
2019-05-21T15:10:57.079Z,19.32
2019-05-21T15:16:02.316Z,19.12
2019-05-21T15:21:12.707Z,19.03
2019-05-21T15:26:18.272Z,18.99
2019-05-21T15:31:24.643Z,18.90
2019-05-21T15:36:29.914Z,18.88
2019-05-21T15:41:35.408Z,18.88
2019-05-21T15:46:48.143Z,18.81
2019-05-21T15:51:47.657Z,18.85
2019-05-21T15:56:53.271Z,18.18
2019-05-21T16:01:58.888Z,17.53
2019-05-21T16:07:05.173Z,17.37
2019-05-21T16:12:10.390Z,17.35
2019-05-21T16:17:15.547Z,17.05
2019-05-21T16:22:21.036Z,16.74
2019-05-21T16:27:26.223Z,16.58
2019-05-21T16:32:32.132Z,16.55
2019-05-21T16:37:37.356Z,16.29
2019-05-21T16:42:42.603Z,16.18
2019-05-21T16:47:48.230Z,16.15
2019-05-21T16:52:53.701Z,16.13
2019-05-21T16:57:58.955Z,16.01
2019-05-21T17:03:04.205Z,15.80
2019-05-21T17:08:09.446Z,15.63
2019-05-21T17:13:14.935Z,15.56
2019-05-21T17:18:21.758Z,15.30
2019-05-21T17:23:26.984Z,15.06
2019-05-21T17:28:32.522Z,14.81
2019-05-21T17:33:38.134Z,14.61
2019-05-21T17:38:43.379Z,14.41
2019-05-21T17:43:48.935Z,14.31
2019-05-21T17:48:54.151Z,14.20
2019-05-21T17:54:00.918Z,14.09
2019-05-21T17:59:06.115Z,14.03
2019-05-21T18:04:13.777Z,13.95
2019-05-21T18:09:20.517Z,13.90
2019-05-21T18:14:26.096Z,13.82
2019-05-21T18:19:31.468Z,13.75
2019-05-21T18:24:37.325Z,13.68
2019-05-21T18:29:43.420Z,13.68
2019-05-21T18:34:48.765Z,13.60
2019-05-21T18:39:54.297Z,13.55
2019-05-21T18:44:59.437Z,13.52
2019-05-21T18:50:05.043Z,13.50
2019-05-21T18:55:10.769Z,13.47
2019-05-21T19:00:16.460Z,13.40
2019-05-21T19:05:21.698Z,13.38
2019-05-21T19:10:27.065Z,13.36
2019-05-21T19:15:32.263Z,13.31
2019-05-21T19:20:37.783Z,13.27
2019-05-21T19:25:43.026Z,13.28
2019-05-21T19:30:48.443Z,13.25
2019-05-21T19:35:53.526Z,13.19
2019-05-21T19:40:58.681Z,13.15
2019-05-21T19:46:03.833Z,13.17
2019-05-21T19:51:09.906Z,13.15
2019-05-21T19:56:15.972Z,13.13
2019-05-21T20:01:21.665Z,13.17
2019-05-21T20:06:27.184Z,13.09
2019-05-21T20:11:32.715Z,13.07
2019-05-21T20:16:39.496Z,13.05
2019-05-21T20:21:45.822Z,13.01
2019-05-21T20:26:51.563Z,12.96
2019-05-21T20:31:56.699Z,12.93
2019-05-21T20:37:03.362Z,12.90
2019-05-21T20:42:10.171Z,12.86
2019-05-21T20:47:16.277Z,12.87
2019-05-21T20:52:22.266Z,12.85
2019-05-21T20:57:28.799Z,12.85
2019-05-21T21:02:35.321Z,12.83
2019-05-21T21:07:41.268Z,12.76
2019-05-21T21:12:47.083Z,12.80
2019-05-21T21:17:52.627Z,12.74
2019-05-21T21:22:57.717Z,12.71
2019-05-21T21:28:03.079Z,12.71
2019-05-21T21:33:08.505Z,12.71
2019-05-21T21:38:17.370Z,12.70
2019-05-21T21:43:23.176Z,12.69
2019-05-21T21:48:29.908Z,12.69
2019-05-21T21:53:36.380Z,12.66
2019-05-21T21:58:41.741Z,12.67
2019-05-21T22:03:47.060Z,12.69
2019-05-21T22:08:52.859Z,12.69
2019-05-21T22:13:58.314Z,12.66
2019-05-21T22:19:04.175Z,12.67
2019-05-21T22:24:09.963Z,12.71
2019-05-21T22:29:15.792Z,12.70
2019-05-21T22:34:22.060Z,12.70
2019-05-21T22:39:30.586Z,12.68
2019-05-21T22:44:35.792Z,12.67
2019-05-21T22:49:41.593Z,12.68
2019-05-21T22:54:47.055Z,12.65
2019-05-21T22:59:52.212Z,12.64
2019-05-21T23:04:57.511Z,12.64
2019-05-21T23:10:04.756Z,12.63
2019-05-21T23:15:24.548Z,12.62
2019-05-21T23:20:21.416Z,12.63
2019-05-21T23:25:28.499Z,12.62
2019-05-21T23:30:34.475Z,12.63
2019-05-21T23:35:41.283Z,12.62
2019-05-21T23:40:48.685Z,12.60
2019-05-21T23:45:54.375Z,12.60
2019-05-21T23:50:59.871Z,12.62
2019-05-21T23:56:05.132Z,12.60
